createdAt,value
2023-03-30T00:01:40.053Z,96831.25
2023-03-30T00:04:11.593Z,96830.44
2023-03-30T00:06:42.515Z,96831.25
2023-03-30T00:09:10.053Z,96832.91
2023-03-30T00:11:37.840Z,96832.91
2023-03-30T00:14:05.379Z,96834.56
2023-03-30T00:16:33.069Z,96840.47
2023-03-30T00:19:00.680Z,96834.91
2023-03-30T00:21:29.937Z,96832.44
2023-03-30T00:23:57.470Z,96810.59
2023-03-30T00:26:25.141Z,96809.28
2023-03-30T00:28:52.703Z,96805.84
2023-03-30T00:31:20.495Z,96798.56
2023-03-30T00:33:48.189Z,96794.63
2023-03-30T00:36:16.206Z,96801.69
2023-03-30T00:38:48.378Z,96804.16
2023-03-30T00:41:16.582Z,96799.06
2023-03-30T00:43:57.986Z,96787.72
2023-03-30T00:46:25.742Z,96779.19
2023-03-30T00:48:57.603Z,96785.94
2023-03-30T00:51:26.411Z,96790.19
2023-03-30T00:53:57.637Z,96783.59
2023-03-30T00:56:28.336Z,96780.47
2023-03-30T00:58:56.119Z,96783.44
2023-03-30T01:01:29.110Z,96778.66
2023-03-30T01:03:59.355Z,96778.00
2023-03-30T01:06:30.034Z,96775.03
2023-03-30T01:08:59.304Z,96783.91
2023-03-30T01:11:27.956Z,96774.22
2023-03-30T01:13:59.252Z,96773.56
2023-03-30T01:16:31.278Z,96764.22
2023-03-30T01:19:06.130Z,96766.50
2023-03-30T01:21:55.629Z,96756.31
2023-03-30T01:24:53.319Z,96758.16
2023-03-30T01:27:39.261Z,96751.72
2023-03-30T01:30:22.828Z,96749.59
2023-03-30T01:33:13.038Z,96750.91
2023-03-30T01:36:13.741Z,96740.22
2023-03-30T01:39:02.763Z,96734.97
2023-03-30T01:41:35.695Z,96736.94
2023-03-30T01:44:07.574Z,96737.28
2023-03-30T01:46:37.844Z,96737.59
2023-03-30T01:49:11.782Z,96739.25
2023-03-30T01:51:43.650Z,96742.53
2023-03-30T01:54:15.455Z,96738.59
2023-03-30T01:56:45.609Z,96742.19
2023-03-30T01:59:17.534Z,96737.28
2023-03-30T02:01:50.193Z,96738.94
2023-03-30T02:04:20.126Z,96729.75
2023-03-30T02:06:49.791Z,96729.91
2023-03-30T02:09:20.734Z,96732.38
2023-03-30T02:11:50.446Z,96719.91
2023-03-30T02:14:19.307Z,96727.47
2023-03-30T02:16:48.378Z,96720.03
2023-03-30T02:19:17.021Z,96720.38
2023-03-30T02:21:44.813Z,96718.25
2023-03-30T02:24:17.880Z,96717.09
2023-03-30T02:26:49.075Z,96724.97
2023-03-30T02:29:17.473Z,96714.66
2023-03-30T02:31:47.092Z,96709.22
2023-03-30T02:34:22.081Z,96711.50
2023-03-30T02:37:06.091Z,96703.16
2023-03-30T02:39:42.623Z,96696.72
2023-03-30T02:42:27.728Z,96689.00
2023-03-30T02:45:04.654Z,96685.06
2023-03-30T02:47:36.484Z,96677.34
2023-03-30T02:50:07.043Z,96674.06
2023-03-30T02:52:42.979Z,96661.41
2023-03-30T02:55:15.002Z,96648.94
2023-03-30T02:57:51.089Z,96645.31
2023-03-30T03:00:20.233Z,96646.47
2023-03-30T03:02:52.460Z,96652.72
2023-03-30T03:05:20.779Z,96649.75
2023-03-30T03:07:49.191Z,96647.44
2023-03-30T03:10:16.771Z,96645.47
2023-03-30T03:12:46.922Z,96662.53
2023-03-30T03:15:14.730Z,96677.00
2023-03-30T03:17:45.253Z,96678.31
2023-03-30T03:20:13.023Z,96662.69
2023-03-30T03:22:40.631Z,96662.06
2023-03-30T03:25:08.774Z,96674.53
2023-03-30T03:27:36.460Z,96664.03
2023-03-30T03:30:05.846Z,96663.53
2023-03-30T03:32:33.403Z,96667.28
2023-03-30T03:35:01.331Z,96665.13
2023-03-30T03:37:28.881Z,96655.75
2023-03-30T03:39:56.529Z,96661.69
2023-03-30T03:42:24.047Z,96657.94
2023-03-30T03:44:51.572Z,96647.06
2023-03-30T03:47:20.805Z,96648.88
2023-03-30T03:49:48.368Z,96655.59
2023-03-30T03:52:15.897Z,96661.84
2023-03-30T03:54:43.482Z,96650.69
2023-03-30T03:57:11.053Z,96650.88
2023-03-30T03:59:38.659Z,96643.78
2023-03-30T04:02:06.669Z,96650.03
2023-03-30T04:04:35.939Z,96652.50
2023-03-30T04:07:03.534Z,96661.38
2023-03-30T04:09:31.066Z,96662.53
2023-03-30T04:11:58.592Z,96668.63
2023-03-30T04:14:26.373Z,96674.19
2023-03-30T04:16:58.071Z,96677.16
2023-03-30T04:19:27.746Z,96677.00
2023-03-30T04:21:58.868Z,96694.06
2023-03-30T04:24:27.935Z,96699.34
2023-03-30T04:26:57.971Z,96704.41
2023-03-30T04:29:25.542Z,96708.22
2023-03-30T04:31:53.290Z,96691.47
2023-03-30T04:34:21.921Z,96698.00
2023-03-30T04:36:49.578Z,96688.00
2023-03-30T04:39:20.788Z,96677.84
2023-03-30T04:41:54.478Z,96677.19
2023-03-30T04:44:22.100Z,96668.81
2023-03-30T04:46:49.629Z,96672.94
2023-03-30T04:49:17.170Z,96682.13
2023-03-30T04:51:44.781Z,96682.44
2023-03-30T04:54:12.331Z,96682.44
2023-03-30T04:56:41.544Z,96682.28
2023-03-30T04:59:09.185Z,96680.78
2023-03-30T05:01:36.751Z,96690.66
2023-03-30T05:04:04.317Z,96689.63
2023-03-30T05:06:31.910Z,96695.91
2023-03-30T05:08:59.459Z,96699.50
2023-03-30T05:11:27.312Z,96697.88
2023-03-30T05:13:56.290Z,96697.38
2023-03-30T05:16:23.873Z,96702.13
2023-03-30T05:18:51.900Z,96707.53
2023-03-30T05:21:19.474Z,96710.66
2023-03-30T05:23:47.013Z,96702.59
2023-03-30T05:26:14.618Z,96696.34
2023-03-30T05:28:43.058Z,96704.41
2023-03-30T05:31:11.988Z,96700.94
2023-03-30T05:33:41.371Z,96705.22
2023-03-30T05:36:11.605Z,96701.59
2023-03-30T05:38:39.289Z,96701.09
2023-03-30T05:41:07.717Z,96698.81
2023-03-30T05:43:35.366Z,96708.34
2023-03-30T05:46:03.494Z,96706.38
2023-03-30T05:48:32.425Z,96712.78
2023-03-30T05:51:02.159Z,96707.66
2023-03-30T05:53:30.039Z,96708.31
2023-03-30T05:55:57.594Z,96705.34
2023-03-30T05:58:25.310Z,96700.44
2023-03-30T06:00:54.132Z,96709.47
2023-03-30T06:03:21.816Z,96705.66
2023-03-30T06:05:50.918Z,96708.94
2023-03-30T06:08:20.097Z,96716.34
2023-03-30T06:10:53.989Z,96725.34
2023-03-30T06:13:21.642Z,96723.22
2023-03-30T06:15:49.571Z,96733.25
2023-03-30T06:18:17.488Z,96735.03
2023-03-30T06:20:47.617Z,96735.22
2023-03-30T06:23:16.830Z,96741.63
2023-03-30T06:25:47.260Z,96746.91
2023-03-30T06:28:14.779Z,96740.34
2023-03-30T06:30:42.735Z,96727.34
2023-03-30T06:33:10.278Z,96710.53
2023-03-30T06:35:37.888Z,96703.47
2023-03-30T06:38:05.460Z,96693.41
2023-03-30T06:40:34.317Z,96701.00
2023-03-30T06:43:01.934Z,96692.91
2023-03-30T06:45:29.529Z,96696.69
2023-03-30T06:47:57.216Z,96696.63
2023-03-30T06:50:24.843Z,96680.78
2023-03-30T06:52:53.053Z,96672.50
2023-03-30T06:55:21.795Z,96658.94
2023-03-30T06:57:50.797Z,96659.22
2023-03-30T07:00:19.166Z,96662.22
2023-03-30T07:02:46.728Z,96666.63
2023-03-30T07:05:15.794Z,96658.09
2023-03-30T07:07:43.400Z,96655.13
2023-03-30T07:10:12.115Z,96628.41
2023-03-30T07:12:40.812Z,96617.94
2023-03-30T07:15:10.704Z,96620.78
2023-03-30T07:17:38.744Z,96637.28
2023-03-30T07:20:08.252Z,96638.59
2023-03-30T07:22:36.274Z,96636.16
2023-03-30T07:25:04.596Z,96637.53
2023-03-30T07:27:32.200Z,96641.09
2023-03-30T07:30:10.270Z,96632.69
2023-03-30T07:32:43.170Z,96640.97
2023-03-30T07:35:10.977Z,96638.72
2023-03-30T07:37:40.008Z,96642.41
2023-03-30T07:40:10.071Z,96634.44
2023-03-30T07:42:37.982Z,96628.00
2023-03-30T07:45:06.202Z,96622.03
2023-03-30T07:47:33.885Z,96618.44
2023-03-30T07:50:02.838Z,96618.00
2023-03-30T07:52:30.422Z,96602.56
2023-03-30T07:54:57.991Z,96605.38
2023-03-30T07:57:26.181Z,96602.25
2023-03-30T07:59:53.807Z,96600.03
2023-03-30T08:02:21.345Z,96599.00
2023-03-30T08:04:49.124Z,96594.88
2023-03-30T08:07:18.131Z,96602.41
2023-03-30T08:09:46.774Z,96607.78
2023-03-30T08:12:14.517Z,96613.53
2023-03-30T08:14:42.106Z,96616.38
2023-03-30T08:17:09.633Z,96607.22
2023-03-30T08:19:37.266Z,96609.06
2023-03-30T08:22:04.861Z,96619.72
2023-03-30T08:24:34.839Z,96620.75
2023-03-30T08:27:02.610Z,96624.09
2023-03-30T08:29:31.501Z,96617.13
2023-03-30T08:31:59.086Z,96624.53
2023-03-30T08:34:27.494Z,96630.38
2023-03-30T08:36:55.426Z,96627.69
2023-03-30T08:39:23.110Z,96638.25
2023-03-30T08:42:01.090Z,96651.91
2023-03-30T08:44:33.850Z,96677.91
2023-03-30T08:47:02.554Z,96673.25
2023-03-30T08:49:31.347Z,96660.47
2023-03-30T08:52:02.505Z,96643.69
2023-03-30T08:54:31.664Z,96623.34
2023-03-30T08:57:08.841Z,96616.03
2023-03-30T08:59:42.211Z,96617.66
2023-03-30T09:02:16.417Z,96602.53
2023-03-30T09:04:57.156Z,96589.91
2023-03-30T09:07:26.494Z,96584.56
2023-03-30T09:09:55.080Z,96592.78
2023-03-30T09:12:31.601Z,96588.97
2023-03-30T09:15:03.266Z,96585.22
2023-03-30T09:17:33.473Z,96577.72
2023-03-30T09:20:06.948Z,96575.09
2023-03-30T09:22:39.909Z,96568.97
2023-03-30T09:25:15.374Z,96575.75
2023-03-30T09:27:48.288Z,96589.47
2023-03-30T09:30:19.977Z,96589.56
2023-03-30T09:32:54.293Z,96616.50
2023-03-30T09:35:25.057Z,96625.38
2023-03-30T09:37:52.697Z,96645.06
2023-03-30T09:40:28.151Z,96664.81
2023-03-30T09:43:01.684Z,96682.22
2023-03-30T09:45:33.276Z,96706.41
2023-03-30T09:48:05.432Z,96742.34
2023-03-30T09:50:39.006Z,96745.19
2023-03-30T09:53:10.029Z,96761.81
2023-03-30T09:55:38.498Z,96757.63
2023-03-30T09:58:14.469Z,96746.94
2023-03-30T10:00:42.065Z,96725.13
2023-03-30T10:03:20.884Z,96702.13
2023-03-30T10:06:02.703Z,96696.03
2023-03-30T10:08:30.771Z,96684.22
2023-03-30T10:11:00.638Z,96682.97
2023-03-30T10:13:33.313Z,96695.53
2023-03-30T10:16:06.470Z,96702.72
2023-03-30T10:18:40.023Z,96700.69
2023-03-30T10:21:10.965Z,96712.88
2023-03-30T10:23:42.027Z,96711.66
2023-03-30T10:26:15.433Z,96713.94
2023-03-30T10:28:52.919Z,96706.00
2023-03-30T10:31:20.780Z,96716.72
2023-03-30T10:33:49.828Z,96697.88
2023-03-30T10:36:19.944Z,96705.53
2023-03-30T10:38:47.950Z,96715.16
2023-03-30T10:41:17.973Z,96713.78
2023-03-30T10:43:47.308Z,96704.91
2023-03-30T10:46:20.148Z,96688.59
2023-03-30T10:49:05.405Z,96686.34
2023-03-30T10:51:39.949Z,96687.16
2023-03-30T10:54:12.129Z,96689.34
2023-03-30T10:56:44.439Z,96686.88
2023-03-30T10:59:20.706Z,96685.09
2023-03-30T11:01:56.012Z,96677.28
2023-03-30T11:04:29.447Z,96684.84
2023-03-30T11:06:58.625Z,96680.97
2023-03-30T11:09:32.788Z,96674.25
2023-03-30T11:12:02.903Z,96647.50
2023-03-30T11:14:38.296Z,96646.94
2023-03-30T11:17:09.056Z,96631.41
2023-03-30T11:19:39.513Z,96638.66
2023-03-30T11:22:15.971Z,96621.28
2023-03-30T11:24:45.964Z,96626.53
2023-03-30T11:27:18.297Z,96664.44
2023-03-30T11:29:49.703Z,96643.44
2023-03-30T11:32:25.947Z,96630.84
2023-03-30T11:35:02.487Z,96615.63
2023-03-30T11:37:34.464Z,96620.78
2023-03-30T11:40:10.112Z,96625.97
2023-03-30T11:42:38.054Z,96627.16
2023-03-30T11:45:23.793Z,96648.09
2023-03-30T11:48:04.405Z,96640.97
2023-03-30T11:50:39.790Z,96621.41
2023-03-30T11:53:15.283Z,96616.25
2023-03-30T11:55:50.015Z,96630.84
2023-03-30T11:58:25.005Z,96642.16
2023-03-30T12:01:03.687Z,96655.38
2023-03-30T12:03:37.767Z,96665.66
2023-03-30T12:06:16.522Z,96661.03
2023-03-30T12:08:52.292Z,96627.22
2023-03-30T12:11:24.577Z,96615.72
2023-03-30T12:13:52.588Z,96628.19
2023-03-30T12:16:28.168Z,96623.69
2023-03-30T12:19:06.658Z,96634.00
2023-03-30T12:21:38.015Z,96631.06
2023-03-30T12:24:13.720Z,96625.16
2023-03-30T12:26:42.516Z,96633.22
2023-03-30T12:29:52.587Z,96642.81
2023-03-30T12:32:08.420Z,96632.78
2023-03-30T12:34:37.691Z,96631.19
2023-03-30T12:37:13.057Z,96608.28
2023-03-30T12:39:44.913Z,96588.31
2023-03-30T12:42:26.265Z,96596.44
2023-03-30T12:45:08.337Z,96610.69
2023-03-30T12:47:52.602Z,96620.97
2023-03-30T12:50:30.240Z,96616.81
2023-03-30T12:53:12.175Z,96607.81
2023-03-30T12:55:45.493Z,96607.13
2023-03-30T12:58:28.442Z,96622.00
2023-03-30T13:01:25.742Z,96607.06
2023-03-30T13:03:55.463Z,96604.75
2023-03-30T13:06:26.980Z,96586.84
2023-03-30T13:08:56.074Z,96589.44
2023-03-30T13:11:24.408Z,96584.22
2023-03-30T13:13:55.037Z,96583.44
2023-03-30T13:16:48.934Z,96569.38
2023-03-30T13:19:26.707Z,96561.94
2023-03-30T13:21:58.797Z,96554.59
2023-03-30T13:24:33.565Z,96555.88
2023-03-30T13:27:13.343Z,96548.31
2023-03-30T13:29:41.336Z,96551.84
2023-03-30T13:32:16.631Z,96545.13
2023-03-30T13:35:06.728Z,96541.59
2023-03-30T13:37:56.788Z,96544.09
2023-03-30T13:40:39.508Z,96535.53
2023-03-30T13:43:18.301Z,96536.56
2023-03-30T13:45:50.816Z,96526.88
2023-03-30T13:48:30.906Z,96519.84
2023-03-30T13:51:01.839Z,96521.69
2023-03-30T13:53:33.549Z,96510.00
2023-03-30T13:56:01.104Z,96504.59
2023-03-30T13:58:30.908Z,96504.84
2023-03-30T14:01:01.674Z,96505.69
2023-03-30T14:03:37.439Z,96491.44
2023-03-30T14:06:09.561Z,96483.69
2023-03-30T14:08:40.785Z,96481.81
2023-03-30T14:11:17.043Z,96472.97
2023-03-30T14:13:45.970Z,96483.56
2023-03-30T14:16:20.064Z,96484.34
2023-03-30T14:18:47.869Z,96483.81
2023-03-30T14:21:18.772Z,96485.09
2023-03-30T14:23:56.275Z,96479.56
2023-03-30T14:26:25.149Z,96473.09
2023-03-30T14:28:55.622Z,96457.78
2023-03-30T14:31:23.451Z,96462.38
2023-03-30T14:33:51.038Z,96450.56
2023-03-30T14:36:21.437Z,96450.88
2023-03-30T14:38:51.376Z,96442.03
2023-03-30T14:41:22.805Z,96443.00
2023-03-30T14:43:54.892Z,96430.00
2023-03-30T14:46:23.897Z,96438.44
2023-03-30T14:48:51.468Z,96446.00
2023-03-30T14:51:25.993Z,96455.06
2023-03-30T14:53:54.620Z,96442.09
2023-03-30T14:56:23.382Z,96439.00
2023-03-30T14:58:52.225Z,96435.91
2023-03-30T15:01:24.059Z,96434.44
2023-03-30T15:03:51.777Z,96431.47
2023-03-30T15:06:24.515Z,96428.34
2023-03-30T15:08:52.744Z,96433.16
2023-03-30T15:11:23.221Z,96424.88
2023-03-30T15:13:53.150Z,96420.06
2023-03-30T15:16:24.225Z,96418.84
2023-03-30T15:18:52.489Z,96418.25
2023-03-30T15:21:20.614Z,96414.38
2023-03-30T15:23:51.201Z,96418.59
2023-03-30T15:26:19.654Z,96417.78
2023-03-30T15:28:50.122Z,96429.44
2023-03-30T15:31:19.671Z,96438.91
2023-03-30T15:33:50.453Z,96436.91
2023-03-30T15:36:20.617Z,96436.94
2023-03-30T15:38:51.617Z,96439.63
2023-03-30T15:41:27.676Z,96427.84
2023-03-30T15:43:59.437Z,96421.72
2023-03-30T15:46:28.821Z,96418.66
2023-03-30T15:48:59.367Z,96422.81
2023-03-30T15:51:29.818Z,96429.06
2023-03-30T15:54:02.544Z,96422.38
2023-03-30T15:56:32.964Z,96430.78
2023-03-30T15:59:01.569Z,96427.34
2023-03-30T16:01:42.563Z,96437.63
2023-03-30T16:04:11.992Z,96440.94
2023-03-30T16:06:42.482Z,96444.97
2023-03-30T16:09:12.106Z,96442.69
2023-03-30T16:11:40.032Z,96441.53
2023-03-30T16:14:08.533Z,96428.88
2023-03-30T16:16:36.217Z,96431.16
2023-03-30T16:19:03.796Z,96449.97
2023-03-30T16:21:31.492Z,96452.59
2023-03-30T16:23:59.013Z,96450.56
2023-03-30T16:26:27.914Z,96448.94
2023-03-30T16:28:55.829Z,96459.34
2023-03-30T16:31:24.240Z,96457.72
2023-03-30T16:33:52.229Z,96466.88
2023-03-30T16:36:22.094Z,96467.28
2023-03-30T16:38:50.027Z,96465.28
2023-03-30T16:41:20.529Z,96468.53
2023-03-30T16:43:49.967Z,96462.44
2023-03-30T16:46:19.111Z,96445.50
2023-03-30T16:48:47.233Z,96446.72
2023-03-30T16:51:16.036Z,96444.88
2023-03-30T16:53:43.790Z,96432.88
2023-03-30T16:56:15.164Z,96442.63
2023-03-30T16:58:42.804Z,96446.06
2023-03-30T17:01:13.201Z,96449.56
2023-03-30T17:03:41.295Z,96456.88
2023-03-30T17:06:09.208Z,96461.78
2023-03-30T17:08:36.874Z,96464.63
2023-03-30T17:11:05.056Z,96460.53
2023-03-30T17:13:33.020Z,96467.69
2023-03-30T17:16:02.794Z,96460.34
2023-03-30T17:18:31.963Z,96467.06
2023-03-30T17:21:00.860Z,96477.69
2023-03-30T17:23:29.983Z,96469.94
2023-03-30T17:25:59.006Z,96458.75
2023-03-30T17:28:28.652Z,96453.22
2023-03-30T17:30:57.887Z,96463.38
2023-03-30T17:33:26.284Z,96465.84
2023-03-30T17:35:57.849Z,96467.28
2023-03-30T17:38:25.769Z,96471.22
2023-03-30T17:40:53.364Z,96478.16
2023-03-30T17:43:21.301Z,96485.91
2023-03-30T17:45:49.043Z,96491.97
2023-03-30T17:48:18.447Z,96496.47
2023-03-30T17:50:47.798Z,96512.13
2023-03-30T17:53:17.789Z,96511.91
2023-03-30T17:55:46.214Z,96515.09
2023-03-30T17:58:18.093Z,96527.25
2023-03-30T18:00:47.126Z,96516.66
2023-03-30T18:03:14.853Z,96529.16
2023-03-30T18:05:43.079Z,96535.56
2023-03-30T18:08:14.622Z,96540.16
2023-03-30T18:10:44.902Z,96535.31
2023-03-30T18:13:12.501Z,96544.97
2023-03-30T18:15:40.046Z,96551.56
2023-03-30T18:18:07.607Z,96542.50
2023-03-30T18:20:37.138Z,96559.69
2023-03-30T18:23:04.680Z,96563.75
2023-03-30T18:25:33.070Z,96553.69
2023-03-30T18:28:02.314Z,96572.16
2023-03-30T18:30:31.504Z,96566.72
2023-03-30T18:32:59.498Z,96577.84
2023-03-30T18:35:28.710Z,96582.66
2023-03-30T18:37:56.528Z,96578.47
2023-03-30T18:40:26.583Z,96576.22
2023-03-30T18:42:54.813Z,96583.75
2023-03-30T18:45:26.828Z,96582.03
2023-03-30T18:47:54.826Z,96585.75
2023-03-30T18:50:24.567Z,96587.84
2023-03-30T18:52:52.301Z,96589.66
2023-03-30T18:55:19.905Z,96595.47
2023-03-30T18:57:47.469Z,96600.16
2023-03-30T19:00:26.242Z,96605.09
2023-03-30T19:02:55.168Z,96609.84
2023-03-30T19:05:24.056Z,96610.09
2023-03-30T19:07:51.600Z,96616.25
2023-03-30T19:10:20.868Z,96609.34
2023-03-30T19:12:52.861Z,96617.22
2023-03-30T19:15:25.298Z,96622.38
2023-03-30T19:17:53.183Z,96624.34
2023-03-30T19:20:22.683Z,96620.03
2023-03-30T19:22:50.544Z,96624.91
2023-03-30T19:25:19.995Z,96630.31
2023-03-30T19:27:59.676Z,96627.13
2023-03-30T19:30:33.016Z,96623.59
2023-03-30T19:33:03.648Z,96626.81
2023-03-30T19:35:31.785Z,96637.38
2023-03-30T19:37:59.729Z,96644.81
2023-03-30T19:40:27.662Z,96643.50
2023-03-30T19:42:55.343Z,96652.53
2023-03-30T19:45:23.754Z,96650.59
2023-03-30T19:47:53.159Z,96649.13
2023-03-30T19:50:24.824Z,96650.59
2023-03-30T19:52:54.361Z,96642.22
2023-03-30T19:55:22.548Z,96655.72
2023-03-30T19:57:50.180Z,96646.53
2023-03-30T20:00:18.857Z,96655.72
2023-03-30T20:02:48.930Z,96660.03
2023-03-30T20:05:18.485Z,96663.00
2023-03-30T20:07:47.154Z,96662.50
2023-03-30T20:10:16.689Z,96662.81
2023-03-30T20:12:44.254Z,96664.63
2023-03-30T20:15:12.469Z,96662.09
2023-03-30T20:17:40.562Z,96662.44
2023-03-30T20:20:12.595Z,96665.56
2023-03-30T20:22:42.840Z,96655.84
2023-03-30T20:25:12.300Z,96658.59
2023-03-30T20:27:40.212Z,96660.41
2023-03-30T20:30:09.174Z,96664.88
2023-03-30T20:32:36.773Z,96668.66
2023-03-30T20:35:05.191Z,96660.97
2023-03-30T20:37:32.718Z,96657.69
2023-03-30T20:40:09.529Z,96651.13
2023-03-30T20:42:39.477Z,96656.06
2023-03-30T20:45:08.842Z,96652.44
2023-03-30T20:47:36.417Z,96643.75
2023-03-30T20:50:04.704Z,96652.97
2023-03-30T20:52:32.268Z,96660.91
2023-03-30T20:55:01.399Z,96659.41
2023-03-30T20:57:29.084Z,96646.91
2023-03-30T20:59:56.649Z,96649.22
2023-03-30T21:02:24.206Z,96650.03
2023-03-30T21:04:52.971Z,96657.44
2023-03-30T21:07:20.565Z,96661.38
2023-03-30T21:09:48.065Z,96658.75
2023-03-30T21:12:17.090Z,96659.75
2023-03-30T21:14:45.863Z,96661.41
2023-03-30T21:17:13.854Z,96665.50
2023-03-30T21:19:41.430Z,96662.22
2023-03-30T21:22:09.086Z,96661.56
2023-03-30T21:24:36.599Z,96667.47
2023-03-30T21:27:04.253Z,96662.06
2023-03-30T21:29:33.318Z,96660.41
2023-03-30T21:32:01.571Z,96656.16
2023-03-30T21:34:29.118Z,96652.22
2023-03-30T21:36:57.208Z,96648.94
2023-03-30T21:39:25.123Z,96646.31
2023-03-30T21:41:52.814Z,96641.38
2023-03-30T21:44:20.887Z,96651.56
2023-03-30T21:46:49.817Z,96658.13
2023-03-30T21:49:17.438Z,96665.22
2023-03-30T21:51:44.979Z,96663.72
2023-03-30T21:54:13.950Z,96661.09
2023-03-30T21:56:41.576Z,96666.00
2023-03-30T21:59:09.721Z,96662.56
2023-03-30T22:01:38.732Z,96651.56
2023-03-30T22:04:07.792Z,96655.00
2023-03-30T22:06:35.477Z,96646.31
2023-03-30T22:09:03.055Z,96643.53
2023-03-30T22:11:30.986Z,96640.22
2023-03-30T22:13:58.490Z,96642.03
2023-03-30T22:16:28.265Z,96628.41
2023-03-30T22:18:56.039Z,96632.00
2023-03-30T22:21:29.171Z,96624.13
2023-03-30T22:23:56.768Z,96624.97
2023-03-30T22:26:24.529Z,96618.88
2023-03-30T22:28:52.136Z,96613.97
2023-03-30T22:31:19.715Z,96618.72
2023-03-30T22:33:47.931Z,96616.75
2023-03-30T22:36:18.807Z,96615.44
2023-03-30T22:38:48.124Z,96607.72
2023-03-30T22:41:15.999Z,96610.97
2023-03-30T22:43:43.552Z,96606.41
2023-03-30T22:46:11.790Z,96601.31
2023-03-30T22:48:41.384Z,96590.97
2023-03-30T22:51:09.184Z,96588.34
2023-03-30T22:53:38.519Z,96594.09
2023-03-30T22:56:08.552Z,96590.81
2023-03-30T22:58:36.341Z,96593.44
2023-03-30T23:01:06.857Z,96598.22
2023-03-30T23:03:34.573Z,96598.22
2023-03-30T23:06:02.324Z,96590.16
2023-03-30T23:08:30.473Z,96583.59
2023-03-30T23:11:03.886Z,96585.88
2023-03-30T23:13:33.346Z,96583.25
2023-03-30T23:16:01.555Z,96590.16
2023-03-30T23:18:29.138Z,96587.84
2023-03-30T23:20:57.983Z,96588.50
2023-03-30T23:23:25.709Z,96592.78
2023-03-30T23:25:53.381Z,96594.25
2023-03-30T23:28:20.936Z,96594.75
2023-03-30T23:30:49.829Z,96591.63
2023-03-30T23:33:17.422Z,96586.88
2023-03-30T23:35:49.771Z,96584.25
2023-03-30T23:38:17.501Z,96579.47
2023-03-30T23:40:45.033Z,96574.72
2023-03-30T23:43:12.577Z,96566.84
2023-03-30T23:45:40.735Z,96558.47
2023-03-30T23:48:09.860Z,96571.13
2023-03-30T23:50:37.756Z,96558.97
2023-03-30T23:53:07.092Z,96547.66
2023-03-30T23:55:34.670Z,96544.84
2023-03-30T23:58:02.302Z,96541.09
